West Grove, Iowa
Current Conditions -  °F | °C
As of 9:30 PM on Sunday 21 Dec 2014 (Local Time) from KTVK Reporting Station
Overcast Overcast  
Wind Chill: 32°   Ceiling: 600
Heat Index: 39°   Visibility: 10mi
Dew Point: 39°   Wind: 13mph
Humidity: 100%   Direction: 150°SSE
Pressure: 29.83"   Gusts: 18mph
Location:  40.72°N, 92.56°W
Report Text: KTVK 220330Z AUTO 15011G16KT 10SM OVC006 04/04 A2983 RMK AO2
Loading
Personal Weather Stations






























Interactive Weather Map New forecast layout! Learn more

10-Day Weather Forecast

Advertisements
Track Severe Weather on mobile